sensor_id;sensor_type;location;lat;lon;timestamp;pressure;altitude;pressure_sealevel;temperature;humidity
33265;BME280;31404;53.974;-1.086;2023-07-24T00:00:35;100541.02;;;14.17;100.00
33265;BME280;31404;53.974;-1.086;2023-07-24T00:05:35;100543.62;;;14.19;100.00
33265;BME280;31404;53.974;-1.086;2023-07-24T00:10:35;100548.13;;;15.09;100.00
33265;BME280;31404;53.974;-1.086;2023-07-24T00:15:35;100548.43;;;14.92;100.00
33265;BME280;31404;53.974;-1.086;2023-07-24T00:20:36;100547.83;;;14.04;100.00
33265;BME280;31404;53.974;-1.086;2023-07-24T00:25:35;100546.89;;;15.08;100.00
33265;BME280;31404;53.974;-1.086;2023-07-24T00:30:35;100551.01;;;14.27;100.00
33265;BME280;31404;53.974;-1.086;2023-07-24T00:35:35;100554.64;;;13.18;100.00
33265;BME280;31404;53.974;-1.086;2023-07-24T00:40:35;100554.62;;;15.05;100.00
33265;BME280;31404;53.974;-1.086;2023-07-24T00:45:35;100550.78;;;14.60;100.00
33265;BME280;31404;53.974;-1.086;2023-07-24T00:50:37;100546.01;;;13.98;100.00
33265;BME280;31404;53.974;-1.086;2023-07-24T00:55:36;100540.96;;;14.36;100.00
33265;BME280;31404;53.974;-1.086;2023-07-24T01:00:35;100540.01;;;14.74;100.00
33265;BME280;31404;53.974;-1.086;2023-07-24T01:05:35;100545.28;;;13.91;100.00
33265;BME280;31404;53.974;-1.086;2023-07-24T01:10:34;100543.03;;;14.50;100.00
33265;BME280;31404;53.974;-1.086;2023-07-24T01:20:37;100552.33;;;11.57;100.00
33265;BME280;31404;53.974;-1.086;2023-07-24T01:25:36;100545.31;;;12.21;100.00
33265;BME280;31404;53.974;-1.086;2023-07-24T01:30:35;100540.98;;;12.05;100.00
33265;BME280;31404;53.974;-1.086;2023-07-24T01:35:34;100538.63;;;13.37;100.00
33265;BME280;31404;53.974;-1.086;2023-07-24T01:40:36;100528.84;;;14.33;100.00
33265;BME280;31404;53.974;-1.086;2023-07-24T01:45:34;100527.03;;;12.51;100.00
33265;BME280;31404;53.974;-1.086;2023-07-24T01:50:35;100523.37;;;13.57;100.00
33265;BME280;31404;53.974;-1.086;2023-07-24T01:55:34;100523.00;;;14.09;100.00
33265;BME280;31404;53.974;-1.086;2023-07-24T02:00:35;100527.30;;;13.24;100.00
33265;BME280;31404;53.974;-1.086;2023-07-24T02:05:35;100520.09;;;14.61;100.00
33265;BME280;31404;53.974;-1.086;2023-07-24T02:10:37;100513.02;;;13.15;100.00
33265;BME280;31404;53.974;-1.086;2023-07-24T02:15:36;100511.98;;;13.07;100.00
33265;BME280;31404;53.974;-1.086;2023-07-24T02:20:39;100509.53;;;12.84;100.00
33265;BME280;31404;53.974;-1.086;2023-07-24T02:25:36;100511.53;;;11.49;100.00
33265;BME280;31404;53.974;-1.086;2023-07-24T02:40:35;100513.24;;;12.27;100.00
33265;BME280;31404;53.974;-1.086;2023-07-24T02:45:35;100511.23;;;13.56;100.00
33265;BME280;31404;53.974;-1.086;2023-07-24T02:50:35;100513.46;;;13.44;100.00
33265;BME280;31404;53.974;-1.086;2023-07-24T02:55:35;100516.98;;;13.77;100.00
33265;BME280;31404;53.974;-1.086;2023-07-24T03:00:36;100520.21;;;12.62;100.00
33265;BME280;31404;53.974;-1.086;2023-07-24T03:05:35;100514.97;;;12.24;100.00
33265;BME280;31404;53.974;-1.086;2023-07-24T03:10:36;100513.96;;;12.03;100.00
33265;BME280;31404;53.974;-1.086;2023-07-24T03:15:35;100511.09;;;13.35;100.00
33265;BME280;31404;53.974;-1.086;2023-07-24T03:20:35;100518.51;;;12.57;100.00
33265;BME280;31404;53.974;-1.086;2023-07-24T03:25:35;100517.60;;;12.38;100.00
33265;BME280;31404;53.974;-1.086;2023-07-24T03:30:34;100524.58;;;11.01;100.00
33265;BME280;31404;53.974;-1.086;2023-07-24T03:35:34;100524.71;;;11.18;100.00
33265;BME280;31404;53.974;-1.086;2023-07-24T03:40:34;100521.75;;;11.27;100.00
33265;BME280;31404;53.974;-1.086;2023-07-24T03:45:34;100520.19;;;12.10;100.00
33265;BME280;31404;53.974;-1.086;2023-07-24T03:50:34;100528.41;;;11.40;100.00
33265;BME280;31404;53.974;-1.086;2023-07-24T03:55:34;100527.66;;;11.03;100.00
33265;BME280;31404;53.974;-1.086;2023-07-24T04:00:34;100531.05;;;11.46;100.00
33265;BME280;31404;53.974;-1.086;2023-07-24T04:05:35;100535.00;;;11.18;100.00
33265;BME280;31404;53.974;-1.086;2023-07-24T04:10:34;100537.99;;;11.33;100.00
33265;BME280;31404;53.974;-1.086;2023-07-24T04:15:34;100533.09;;;11.60;100.00
33265;BME280;31404;53.974;-1.086;2023-07-24T04:20:34;100538.43;;;11.82;100.00
33265;BME280;31404;53.974;-1.086;2023-07-24T04:25:34;100541.59;;;12.66;100.00
33265;BME280;31404;53.974;-1.086;2023-07-24T04:30:34;100538.37;;;10.80;100.00
33265;BME280;31404;53.974;-1.086;2023-07-24T04:35:35;100544.91;;;11.68;100.00
33265;BME280;31404;53.974;-1.086;2023-07-24T04:40:34;100551.48;;;12.28;100.00
33265;BME280;31404;53.974;-1.086;2023-07-24T04:45:34;100554.01;;;12.41;100.00
33265;BME280;31404;53.974;-1.086;2023-07-24T04:50:34;100560.62;;;11.98;100.00
33265;BME280;31404;53.974;-1.086;2023-07-24T04:55:35;100565.91;;;12.01;100.00
33265;BME280;31404;53.974;-1.086;2023-07-24T05:00:34;100569.09;;;12.39;100.00
33265;BME280;31404;53.974;-1.086;2023-07-24T05:05:34;100570.76;;;12.35;100.00
33265;BME280;31404;53.974;-1.086;2023-07-24T05:10:28;100570.73;;;12.75;100.00
33265;BME280;31404;53.974;-1.086;2023-07-24T05:15:35;100577.32;;;11.11;100.00
33265;BME280;31404;53.974;-1.086;2023-07-24T05:20:34;100582.28;;;10.53;100.00
33265;BME280;31404;53.974;-1.086;2023-07-24T05:25:37;100588.29;;;12.27;100.00
33265;BME280;31404;53.974;-1.086;2023-07-24T05:30:35;100593.37;;;11.77;100.00
33265;BME280;31404;53.974;-1.086;2023-07-24T05:35:35;100593.15;;;11.72;100.00
33265;BME280;31404;53.974;-1.086;2023-07-24T05:40:35;100599.17;;;11.12;100.00
33265;BME280;31404;53.974;-1.086;2023-07-24T05:45:34;100601.60;;;11.94;100.00
33265;BME280;31404;53.974;-1.086;2023-07-24T05:50:34;100597.39;;;12.68;100.00
33265;BME280;31404;53.974;-1.086;2023-07-24T05:55:34;100601.35;;;11.07;100.00
33265;BME280;31404;53.974;-1.086;2023-07-24T06:00:34;100598.60;;;11.31;100.00
33265;BME280;31404;53.974;-1.086;2023-07-24T06:05:34;100602.09;;;12.19;100.00
33265;BME280;31404;53.974;-1.086;2023-07-24T06:10:34;100596.98;;;12.72;100.00
33265;BME280;31404;53.974;-1.086;2023-07-24T06:15:35;100599.59;;;13.29;100.00
33265;BME280;31404;53.974;-1.086;2023-07-24T06:20:36;100604.63;;;11.89;100.00
33265;BME280;31404;53.974;-1.086;2023-07-24T06:25:35;100605.93;;;13.20;100.00
33265;BME280;31404;53.974;-1.086;2023-07-24T06:30:35;100611.95;;;12.62;100.00
33265;BME280;31404;53.974;-1.086;2023-07-24T06:35:36;100617.21;;;12.07;100.00
33265;BME280;31404;53.974;-1.086;2023-07-24T06:40:34;100620.23;;;12.28;100.00
33265;BME280;31404;53.974;-1.086;2023-07-24T06:45:35;100625.32;;;10.92;100.00
33265;BME280;31404;53.974;-1.086;2023-07-24T06:50:34;100624.26;;;12.07;100.00
33265;BME280;31404;53.974;-1.086;2023-07-24T06:55:34;100627.39;;;10.96;100.00
33265;BME280;31404;53.974;-1.086;2023-07-24T07:00:34;100628.76;;;10.87;100.00
33265;BME280;31404;53.974;-1.086;2023-07-24T07:05:36;100636.55;;;11.29;100.00
33265;BME280;31404;53.974;-1.086;2023-07-24T07:10:35;100633.54;;;12.05;100.00
33265;BME280;31404;53.974;-1.086;2023-07-24T07:15:35;100637.03;;;11.57;100.00
33265;BME280;31404;53.974;-1.086;2023-07-24T07:20:35;100639.24;;;11.25;100.00
33265;BME280;31404;53.974;-1.086;2023-07-24T07:25:35;100649.78;;;11.88;100.00
33265;BME280;31404;53.974;-1.086;2023-07-24T07:30:35;100649.89;;;10.56;100.00
33265;BME280;31404;53.974;-1.086;2023-07-24T07:35:35;100655.99;;;10.46;100.00
33265;BME280;31404;53.974;-1.086;2023-07-24T07:40:37;100652.99;;;10.26;100.00
33265;BME280;31404;53.974;-1.086;2023-07-24T07:45:34;100652.62;;;10.77;100.00
33265;BME280;31404;53.974;-1.086;2023-07-24T07:50:35;100658.09;;;11.79;100.00
33265;BME280;31404;53.974;-1.086;2023-07-24T07:55:35;100663.09;;;11.10;100.00
33265;BME280;31404;53.974;-1.086;2023-07-24T08:00:35;100663.37;;;11.90;100.00
33265;BME280;31404;53.974;-1.086;2023-07-24T08:05:35;100663.97;;;10.36;100.00
33265;BME280;31404;53.974;-1.086;2023-07-24T08:15:37;100666.57;;;10.14;100.00
33265;BME280;31404;53.974;-1.086;2023-07-24T08:20:36;100664.50;;;11.56;100.00
33265;BME280;31404;53.974;-1.086;2023-07-24T08:25:35;100664.29;;;11.76;100.00
33265;BME280;31404;53.974;-1.086;2023-07-24T08:30:35;100661.91;;;12.56;100.00
33265;BME280;31404;53.974;-1.086;2023-07-24T08:35:35;100673.14;;;11.77;100.00
33265;BME280;31404;53.974;-1.086;2023-07-24T08:40:34;100673.56;;;12.16;100.00
33265;BME280;31404;53.974;-1.086;2023-07-24T08:45:35;100676.48;;;12.46;100.00
33265;BME280;31404;53.974;-1.086;2023-07-24T08:50:35;100692.69;;;10.30;100.00
33265;BME280;31404;53.974;-1.086;2023-07-24T08:55:34;100703.57;;;11.06;100.00
33265;BME280;31404;53.974;-1.086;2023-07-24T09:00:35;100696.11;;;12.30;100.00
33265;BME280;31404;53.974;-1.086;2023-07-24T09:05:35;100696.10;;;11.94;100.00
33265;BME280;31404;53.974;-1.086;2023-07-24T09:10:34;100692.99;;;11.88;100.00
33265;BME280;31404;53.974;-1.086;2023-07-24T09:25:36;100715.14;;;11.00;100.00
33265;BME280;31404;53.974;-1.086;2023-07-24T09:30:34;100714.51;;;11.85;100.00
33265;BME280;31404;53.974;-1.086;2023-07-24T09:35:35;100716.45;;;11.02;100.00
33265;BME280;31404;53.974;-1.086;2023-07-24T09:45:35;100720.17;;;12.05;100.00
33265;BME280;31404;53.974;-1.086;2023-07-24T09:50:35;100728.09;;;12.00;100.00
33265;BME280;31404;53.974;-1.086;2023-07-24T10:00:34;100723.98;;;11.96;100.00
33265;BME280;31404;53.974;-1.086;2023-07-24T10:05:34;100729.10;;;11.29;100.00
33265;BME280;31404;53.974;-1.086;2023-07-24T10:10:35;100731.62;;;12.28;100.00
33265;BME280;31404;53.974;-1.086;2023-07-24T10:15:36;100730.11;;;13.50;100.00
33265;BME280;31404;53.974;-1.086;2023-07-24T10:20:35;100732.88;;;13.82;100.00
33265;BME280;31404;53.974;-1.086;2023-07-24T10:25:36;100739.85;;;13.69;100.00
33265;BME280;31404;53.974;-1.086;2023-07-24T10:30:36;100741.46;;;12.82;100.00
33265;BME280;31404;53.974;-1.086;2023-07-24T10:35:40;100736.06;;;14.31;100.00
33265;BME280;31404;53.974;-1.086;2023-07-24T10:40:35;100738.89;;;13.79;100.00
33265;BME280;31404;53.974;-1.086;2023-07-24T10:50:38;100737.82;;;14.00;100.00
33265;BME280;31404;53.974;-1.086;2023-07-24T10:55:36;100732.07;;;14.11;100.00
33265;BME280;31404;53.974;-1.086;2023-07-24T11:00:34;100741.22;;;13.18;100.00
33265;BME280;31404;53.974;-1.086;2023-07-24T11:05:34;100760.62;;;12.45;100.00
33265;BME280;31404;53.974;-1.086;2023-07-24T11:10:34;100757.96;;;13.89;100.00
33265;BME280;31404;53.974;-1.086;2023-07-24T11:15:34;100756.81;;;14.28;100.00
33265;BME280;31404;53.974;-1.086;2023-07-24T11:20:37;100759.27;;;12.29;100.00
33265;BME280;31404;53.974;-1.086;2023-07-24T11:25:34;100773.69;;;12.38;100.00
33265;BME280;31404;53.974;-1.086;2023-07-24T11:35:35;100775.71;;;12.86;100.00
33265;BME280;31404;53.974;-1.086;2023-07-24T11:40:37;100780.51;;;13.49;100.00
33265;BME280;31404;53.974;-1.086;2023-07-24T11:55:35;100790.25;;;12.25;100.00
33265;BME280;31404;53.974;-1.086;2023-07-24T12:00:35;100781.59;;;14.43;99.70
33265;BME280;31404;53.974;-1.086;2023-07-24T12:10:38;100790.34;;;13.60;100.00
33265;BME280;31404;53.974;-1.086;2023-07-24T12:15:35;100792.64;;;14.49;98.01
33265;BME280;31404;53.974;-1.086;2023-07-24T12:20:35;100788.95;;;15.37;97.73
33265;BME280;31404;53.974;-1.086;2023-07-24T12:25:34;100790.28;;;15.22;87.20
33265;BME280;31404;53.974;-1.086;2023-07-24T12:30:35;100789.26;;;15.69;86.34
33265;BME280;31404;53.974;-1.086;2023-07-24T12:35:36;100787.47;;;15.06;84.60
33265;BME280;31404;53.974;-1.086;2023-07-24T12:40:34;100791.03;;;14.60;86.28
33265;BME280;31404;53.974;-1.086;2023-07-24T12:45:34;100783.15;;;15.85;80.35
33265;BME280;31404;53.974;-1.086;2023-07-24T12:50:34;100785.77;;;15.66;80.48
33265;BME280;31404;53.974;-1.086;2023-07-24T12:55:34;100786.47;;;15.15;82.42
33265;BME280;31404;53.974;-1.086;2023-07-24T13:00:34;100780.97;;;16.42;78.49
33265;BME280;31404;53.974;-1.086;2023-07-24T13:05:35;100777.48;;;15.72;74.21
33265;BME280;31404;53.974;-1.086;2023-07-24T13:10:34;100774.85;;;15.58;77.94
33265;BME280;31404;53.974;-1.086;2023-07-24T13:15:36;100776.21;;;15.43;76.44
33265;BME280;31404;53.974;-1.086;2023-07-24T13:20:35;100775.95;;;15.82;72.14
33265;BME280;31404;53.974;-1.086;2023-07-24T13:25:35;100774.33;;;16.34;72.98
33265;BME280;31404;53.974;-1.086;2023-07-24T13:30:35;100777.20;;;14.89;71.36
33265;BME280;31404;53.974;-1.086;2023-07-24T13:40:35;100780.74;;;15.10;76.97
33265;BME280;31404;53.974;-1.086;2023-07-24T13:45:35;100781.76;;;16.33;74.21
33265;BME280;31404;53.974;-1.086;2023-07-24T13:50:35;100777.26;;;15.56;73.41
33265;BME280;31404;53.974;-1.086;2023-07-24T13:55:35;100778.15;;;14.89;72.82
33265;BME280;31404;53.974;-1.086;2023-07-24T14:00:35;100772.49;;;15.96;71.39
33265;BME280;31404;53.974;-1.086;2023-07-24T14:05:36;100770.36;;;15.98;69.32
33265;BME280;31404;53.974;-1.086;2023-07-24T14:10:36;100770.44;;;16.82;66.33
33265;BME280;31404;53.974;-1.086;2023-07-24T14:15:35;100772.67;;;16.08;65.49
33265;BME280;31404;53.974;-1.086;2023-07-24T14:20:35;100765.75;;;17.21;65.57
33265;BME280;31404;53.974;-1.086;2023-07-24T14:25:34;100770.59;;;17.30;64.66
33265;BME280;31404;53.974;-1.086;2023-07-24T14:30:34;100771.00;;;16.05;68.49
33265;BME280;31404;53.974;-1.086;2023-07-24T14:35:29;100773.09;;;17.82;63.63
33265;BME280;31404;53.974;-1.086;2023-07-24T14:40:35;100779.59;;;16.83;64.38
33265;BME280;31404;53.974;-1.086;2023-07-24T14:45:34;100784.53;;;14.81;73.50
33265;BME280;31404;53.974;-1.086;2023-07-24T14:50:34;100782.35;;;17.09;67.29
33265;BME280;31404;53.974;-1.086;2023-07-24T14:55:34;100784.51;;;17.10;64.94
33265;BME280;31404;53.974;-1.086;2023-07-24T15:00:34;100786.44;;;17.50;64.66
33265;BME280;31404;53.974;-1.086;2023-07-24T15:05:35;100785.54;;;17.03;62.99
33265;BME280;31404;53.974;-1.086;2023-07-24T15:10:35;100784.00;;;17.41;63.45
33265;BME280;31404;53.974;-1.086;2023-07-24T15:15:35;100779.25;;;16.72;66.02
33265;BME280;31404;53.974;-1.086;2023-07-24T15:20:34;100781.35;;;15.19;67.44
33265;BME280;31404;53.974;-1.086;2023-07-24T15:25:34;100776.21;;;15.95;65.77
33265;BME280;31404;53.974;-1.086;2023-07-24T15:30:35;100771.07;;;15.85;68.50
33265;BME280;31404;53.974;-1.086;2023-07-24T15:35:35;100771.50;;;16.80;66.31
33265;BME280;31404;53.974;-1.086;2023-07-24T15:40:34;100762.74;;;17.67;61.81
33265;BME280;31404;53.974;-1.086;2023-07-24T15:45:34;100767.48;;;17.10;64.22
33265;BME280;31404;53.974;-1.086;2023-07-24T15:50:36;100774.35;;;16.33;66.67
33265;BME280;31404;53.974;-1.086;2023-07-24T15:55:36;100766.40;;;17.45;62.94
33265;BME280;31404;53.974;-1.086;2023-07-24T16:00:36;100768.01;;;17.48;60.96
33265;BME280;31404;53.974;-1.086;2023-07-24T16:05:35;100770.16;;;17.18;62.89
33265;BME280;31404;53.974;-1.086;2023-07-24T16:10:35;100776.14;;;17.72;62.84
33265;BME280;31404;53.974;-1.086;2023-07-24T16:15:35;100784.89;;;17.21;63.98
33265;BME280;31404;53.974;-1.086;2023-07-24T16:20:36;100789.62;;;16.42;67.54
33265;BME280;31404;53.974;-1.086;2023-07-24T16:25:35;100785.06;;;16.50;66.19
33265;BME280;31404;53.974;-1.086;2023-07-24T16:30:34;100791.15;;;15.28;69.79
33265;BME280;31404;53.974;-1.086;2023-07-24T16:35:34;100797.05;;;16.49;68.27
33265;BME280;31404;53.974;-1.086;2023-07-24T16:40:34;100795.53;;;16.53;66.84
33265;BME280;31404;53.974;-1.086;2023-07-24T16:45:34;100797.88;;;16.92;66.43
33265;BME280;31404;53.974;-1.086;2023-07-24T16:50:35;100788.84;;;16.69;67.64
33265;BME280;31404;53.974;-1.086;2023-07-24T16:55:34;100797.62;;;16.09;68.76
33265;BME280;31404;53.974;-1.086;2023-07-24T17:00:35;100797.05;;;16.37;67.20
33265;BME280;31404;53.974;-1.086;2023-07-24T17:05:35;100792.42;;;17.22;65.24
33265;BME280;31404;53.974;-1.086;2023-07-24T17:15:34;100793.27;;;16.57;67.53
33265;BME280;31404;53.974;-1.086;2023-07-24T17:20:35;100795.12;;;17.23;64.13
33265;BME280;31404;53.974;-1.086;2023-07-24T17:25:35;100797.89;;;17.16;64.61
33265;BME280;31404;53.974;-1.086;2023-07-24T17:30:35;100799.63;;;17.74;62.53
33265;BME280;31404;53.974;-1.086;2023-07-24T17:35:35;100798.24;;;17.27;90.36
33265;BME280;31404;53.974;-1.086;2023-07-24T17:40:35;100799.28;;;17.71;78.30
33265;BME280;31404;53.974;-1.086;2023-07-24T17:45:34;100801.11;;;17.64;63.48
33265;BME280;31404;53.974;-1.086;2023-07-24T17:50:35;100803.65;;;16.80;65.69
33265;BME280;31404;53.974;-1.086;2023-07-24T17:55:35;100800.67;;;18.00;63.31
33265;BME280;31404;53.974;-1.086;2023-07-24T18:00:34;100806.55;;;17.35;63.76
33265;BME280;31404;53.974;-1.086;2023-07-24T18:05:34;100804.35;;;16.89;64.65
33265;BME280;31404;53.974;-1.086;2023-07-24T18:10:35;100808.23;;;17.22;63.26
33265;BME280;31404;53.974;-1.086;2023-07-24T18:15:35;100808.30;;;17.40;62.81
33265;BME280;31404;53.974;-1.086;2023-07-24T18:20:34;100811.04;;;16.39;64.37
33265;BME280;31404;53.974;-1.086;2023-07-24T18:25:36;100811.57;;;16.38;64.96
33265;BME280;31404;53.974;-1.086;2023-07-24T18:30:36;100807.96;;;16.00;67.21
33265;BME280;31404;53.974;-1.086;2023-07-24T18:35:36;100810.81;;;17.04;63.10
33265;BME280;31404;53.974;-1.086;2023-07-24T18:40:35;100813.23;;;17.56;62.12
33265;BME280;31404;53.974;-1.086;2023-07-24T18:45:35;100816.94;;;17.09;62.40
33265;BME280;31404;53.974;-1.086;2023-07-24T18:50:35;100809.55;;;18.56;59.23
33265;BME280;31404;53.974;-1.086;2023-07-24T18:55:35;100812.19;;;18.33;60.39
33265;BME280;31404;53.974;-1.086;2023-07-24T19:00:35;100817.08;;;17.34;62.56
33265;BME280;31404;53.974;-1.086;2023-07-24T19:05:35;100821.37;;;17.26;63.93
33265;BME280;31404;53.974;-1.086;2023-07-24T19:10:34;100818.32;;;15.89;66.84
33265;BME280;31404;53.974;-1.086;2023-07-24T19:15:34;100823.36;;;17.60;63.26
33265;BME280;31404;53.974;-1.086;2023-07-24T19:20:34;100822.80;;;17.81;62.27
33265;BME280;31404;53.974;-1.086;2023-07-24T19:25:34;100820.89;;;18.16;60.58
33265;BME280;31404;53.974;-1.086;2023-07-24T19:30:34;100820.69;;;18.23;60.28
33265;BME280;31404;53.974;-1.086;2023-07-24T19:35:34;100829.91;;;17.01;62.55
33265;BME280;31404;53.974;-1.086;2023-07-24T19:40:35;100834.13;;;17.49;61.69
33265;BME280;31404;53.974;-1.086;2023-07-24T19:45:37;100836.85;;;15.90;65.43
33265;BME280;31404;53.974;-1.086;2023-07-24T19:50:35;100838.54;;;16.02;66.58
33265;BME280;31404;53.974;-1.086;2023-07-24T19:55:35;100843.12;;;16.41;65.59
33265;BME280;31404;53.974;-1.086;2023-07-24T20:00:34;100853.78;;;14.98;70.30
33265;BME280;31404;53.974;-1.086;2023-07-24T20:05:35;100858.09;;;15.29;69.75
33265;BME280;31404;53.974;-1.086;2023-07-24T20:10:34;100861.27;;;13.79;75.81
33265;BME280;31404;53.974;-1.086;2023-07-24T20:15:36;100861.39;;;13.17;76.03
33265;BME280;31404;53.974;-1.086;2023-07-24T20:20:35;100862.81;;;13.84;75.17
33265;BME280;31404;53.974;-1.086;2023-07-24T20:25:37;100864.84;;;13.32;77.51
33265;BME280;31404;53.974;-1.086;2023-07-24T20:30:35;100865.58;;;13.16;78.81
33265;BME280;31404;53.974;-1.086;2023-07-24T20:35:35;100864.71;;;14.02;75.29
33265;BME280;31404;53.974;-1.086;2023-07-24T20:40:35;100864.50;;;12.62;80.77
33265;BME280;31404;53.974;-1.086;2023-07-24T20:45:34;100865.40;;;12.82;80.38
33265;BME280;31404;53.974;-1.086;2023-07-24T20:50:36;100861.62;;;14.14;75.63
33265;BME280;31404;53.974;-1.086;2023-07-24T20:55:34;100861.29;;;15.14;70.29
33265;BME280;31404;53.974;-1.086;2023-07-24T21:00:34;100861.80;;;14.86;71.58
33265;BME280;31404;53.974;-1.086;2023-07-24T21:05:34;100864.89;;;14.62;71.90
33265;BME280;31404;53.974;-1.086;2023-07-24T21:10:29;100869.31;;;13.51;76.26
33265;BME280;31404;53.974;-1.086;2023-07-24T21:15:34;100867.01;;;14.11;76.55
33265;BME280;31404;53.974;-1.086;2023-07-24T21:20:35;100875.64;;;13.95;75.50
33265;BME280;31404;53.974;-1.086;2023-07-24T21:25:35;100876.20;;;15.46;69.70
33265;BME280;31404;53.974;-1.086;2023-07-24T21:30:34;100873.67;;;14.23;72.22
33265;BME280;31404;53.974;-1.086;2023-07-24T21:35:35;100877.80;;;14.50;70.98
33265;BME280;31404;53.974;-1.086;2023-07-24T21:40:34;100877.95;;;14.61;70.04
33265;BME280;31404;53.974;-1.086;2023-07-24T21:45:36;100878.81;;;15.62;67.83
33265;BME280;31404;53.974;-1.086;2023-07-24T21:50:34;100883.32;;;14.95;69.51
33265;BME280;31404;53.974;-1.086;2023-07-24T22:00:36;100879.64;;;16.04;66.30
33265;BME280;31404;53.974;-1.086;2023-07-24T22:05:34;100883.24;;;17.15;64.29
33265;BME280;31404;53.974;-1.086;2023-07-24T22:10:35;100885.72;;;16.91;64.46
33265;BME280;31404;53.974;-1.086;2023-07-24T22:15:35;100893.25;;;16.61;64.92
33265;BME280;31404;53.974;-1.086;2023-07-24T22:20:35;100894.76;;;17.55;62.95
33265;BME280;31404;53.974;-1.086;2023-07-24T22:25:34;100886.74;;;16.45;65.70
33265;BME280;31404;53.974;-1.086;2023-07-24T22:30:34;100887.72;;;16.68;64.84
33265;BME280;31404;53.974;-1.086;2023-07-24T22:35:35;100889.61;;;17.54;63.46
33265;BME280;31404;53.974;-1.086;2023-07-24T22:40:34;100888.46;;;17.29;64.13
33265;BME280;31404;53.974;-1.086;2023-07-24T22:45:35;100888.47;;;17.76;63.23
33265;BME280;31404;53.974;-1.086;2023-07-24T22:50:34;100888.89;;;16.32;64.63
33265;BME280;31404;53.974;-1.086;2023-07-24T22:55:36;100887.43;;;16.00;65.27
33265;BME280;31404;53.974;-1.086;2023-07-24T23:00:40;100887.18;;;15.84;65.58
33265;BME280;31404;53.974;-1.086;2023-07-24T23:05:34;100890.73;;;14.64;70.19
33265;BME280;31404;53.974;-1.086;2023-07-24T23:10:34;100888.59;;;14.43;71.55
33265;BME280;31404;53.974;-1.086;2023-07-24T23:15:34;100890.57;;;14.49;72.13
33265;BME280;31404;53.974;-1.086;2023-07-24T23:20:35;100884.34;;;15.01;70.61
33265;BME280;31404;53.974;-1.086;2023-07-24T23:25:35;100881.38;;;14.76;71.58
33265;BME280;31404;53.974;-1.086;2023-07-24T23:35:35;100874.51;;;13.98;75.22
33265;BME280;31404;53.974;-1.086;2023-07-24T23:40:35;100866.25;;;14.43;73.83
33265;BME280;31404;53.974;-1.086;2023-07-24T23:45:35;100869.74;;;15.14;71.20
33265;BME280;31404;53.974;-1.086;2023-07-24T23:50:37;100861.19;;;16.32;67.94
33265;BME280;31404;53.974;-1.086;2023-07-24T23:55:34;100859.36;;;15.31;70.79
